createdAt,value
2022-11-30T00:01:21.848Z,4.30
2022-11-30T00:03:55.202Z,4.00
2022-11-30T00:06:24.145Z,3.90
2022-11-30T00:08:54.897Z,4.00
2022-11-30T00:11:23.848Z,4.20
2022-11-30T00:13:52.104Z,4.30
2022-11-30T00:16:21.455Z,4.40
2022-11-30T00:18:49.513Z,4.50
2022-11-30T00:21:17.487Z,4.30
2022-11-30T00:23:47.338Z,4.40
2022-11-30T00:26:18.120Z,4.40
2022-11-30T00:28:49.574Z,4.50
2022-11-30T00:31:19.776Z,4.50
2022-11-30T00:33:49.689Z,4.40
2022-11-30T00:36:19.719Z,4.40
2022-11-30T00:38:48.038Z,4.30
2022-11-30T00:41:17.201Z,4.20
2022-11-30T00:43:45.830Z,4.20
2022-11-30T00:46:14.843Z,4.20
2022-11-30T00:48:43.355Z,4.10
2022-11-30T00:51:13.723Z,4.10
2022-11-30T00:53:42.646Z,4.20
2022-11-30T00:56:11.828Z,4.20
2022-11-30T00:58:40.146Z,4.20
2022-11-30T01:01:08.942Z,4.30
2022-11-30T01:03:37.990Z,4.20
2022-11-30T01:06:07.287Z,4.10
2022-11-30T01:08:43.657Z,4.00
2022-11-30T01:11:16.741Z,3.60
2022-11-30T01:13:44.919Z,3.40
2022-11-30T01:16:15.951Z,3.50
2022-11-30T01:18:44.950Z,3.60
2022-11-30T01:21:15.219Z,3.70
2022-11-30T01:23:45.719Z,3.40
2022-11-30T01:26:14.554Z,3.20
2022-11-30T01:28:44.083Z,3.10
2022-11-30T01:31:13.799Z,3.30
2022-11-30T01:33:43.337Z,3.30
2022-11-30T01:36:13.226Z,3.50
2022-11-30T01:38:43.971Z,3.70
2022-11-30T01:41:15.563Z,3.80
2022-11-30T01:43:46.142Z,3.50
2022-11-30T01:46:31.414Z,3.70
2022-11-30T01:49:05.248Z,3.90
2022-11-30T01:51:37.247Z,4.00
2022-11-30T01:54:12.507Z,4.00
2022-11-30T01:56:44.655Z,3.70
2022-11-30T01:59:13.827Z,3.70
2022-11-30T02:01:42.123Z,3.70
2022-11-30T02:04:16.125Z,3.80
2022-11-30T02:06:45.450Z,3.90
2022-11-30T02:09:15.080Z,4.00
2022-11-30T02:11:44.584Z,4.10
2022-11-30T02:14:25.550Z,4.10
2022-11-30T02:17:00.337Z,4.10
2022-11-30T02:20:06.504Z,4.10
2022-11-30T02:22:48.359Z,4.10
2022-11-30T02:25:26.027Z,4.20
2022-11-30T02:28:12.748Z,4.20
2022-11-30T02:30:45.996Z,4.20
2022-11-30T02:33:17.377Z,4.10
2022-11-30T02:35:54.331Z,4.20
2022-11-30T02:38:24.246Z,4.00
2022-11-30T02:40:52.312Z,4.10
2022-11-30T02:43:22.974Z,4.10
2022-11-30T02:45:59.845Z,4.10
2022-11-30T02:48:33.588Z,4.00
2022-11-30T02:51:05.911Z,3.60
2022-11-30T02:53:34.230Z,3.50
2022-11-30T02:56:02.634Z,3.70
2022-11-30T02:58:31.024Z,3.80
2022-11-30T03:01:01.179Z,3.80
2022-11-30T03:03:29.335Z,3.80
2022-11-30T03:05:58.130Z,3.80
2022-11-30T03:08:26.835Z,3.90
2022-11-30T03:10:54.873Z,3.90
2022-11-30T03:13:22.861Z,3.70
2022-11-30T03:15:51.115Z,3.80
2022-11-30T03:18:21.160Z,3.80
2022-11-30T03:20:49.135Z,3.90
2022-11-30T03:23:17.473Z,3.50
2022-11-30T03:25:45.412Z,3.50
2022-11-30T03:28:14.155Z,3.60
2022-11-30T03:30:42.811Z,3.20
2022-11-30T03:33:10.907Z,3.20
2022-11-30T03:35:40.217Z,3.40
2022-11-30T03:38:08.174Z,3.10
2022-11-30T03:40:37.922Z,2.90
2022-11-30T03:43:07.200Z,2.90
2022-11-30T03:45:35.204Z,3.00
2022-11-30T03:48:03.165Z,3.10
2022-11-30T03:50:33.130Z,3.20
2022-11-30T03:53:03.333Z,3.20
2022-11-30T03:55:31.323Z,3.20
2022-11-30T03:58:00.282Z,3.20
2022-11-30T04:00:28.259Z,3.30
2022-11-30T04:02:57.124Z,3.50
2022-11-30T04:05:25.152Z,3.50
2022-11-30T04:07:53.221Z,3.40
2022-11-30T04:10:23.835Z,3.40
2022-11-30T04:12:51.966Z,3.50
2022-11-30T04:15:20.060Z,3.60
2022-11-30T04:17:48.717Z,3.30
2022-11-30T04:20:17.893Z,3.40
2022-11-30T04:22:45.927Z,3.50
2022-11-30T04:25:13.882Z,3.10
2022-11-30T04:27:45.991Z,2.90
2022-11-30T04:30:15.051Z,3.10
2022-11-30T04:32:43.094Z,3.20
2022-11-30T04:35:11.710Z,3.10
2022-11-30T04:37:40.867Z,2.90
2022-11-30T04:40:09.939Z,2.80
2022-11-30T04:42:37.888Z,2.70
2022-11-30T04:45:08.294Z,2.60
2022-11-30T04:47:36.278Z,2.60
2022-11-30T04:50:04.986Z,2.50
2022-11-30T04:52:33.658Z,2.40
2022-11-30T04:55:01.805Z,2.50
2022-11-30T04:57:29.931Z,2.60
2022-11-30T04:59:57.874Z,2.70
2022-11-30T05:02:27.246Z,2.80
2022-11-30T05:04:55.985Z,2.60
2022-11-30T05:07:24.065Z,2.50
2022-11-30T05:09:52.039Z,2.40
2022-11-30T05:12:22.147Z,2.50
2022-11-30T05:14:50.954Z,2.50
2022-11-30T05:17:19.060Z,2.70
2022-11-30T05:19:48.556Z,2.80
2022-11-30T05:22:16.612Z,2.60
2022-11-30T05:24:44.844Z,2.70
2022-11-30T05:27:16.475Z,2.80
2022-11-30T05:29:47.793Z,2.90
2022-11-30T05:32:15.834Z,2.80
2022-11-30T05:34:50.579Z,2.80
2022-11-30T05:37:21.157Z,2.50
2022-11-30T05:39:49.115Z,2.50
2022-11-30T05:42:17.189Z,2.80
2022-11-30T05:44:45.821Z,2.70
2022-11-30T05:47:14.486Z,2.60
2022-11-30T05:49:42.587Z,2.70
2022-11-30T05:52:10.946Z,2.80
2022-11-30T05:54:40.498Z,3.00
2022-11-30T05:57:08.444Z,2.90
2022-11-30T05:59:36.407Z,2.60
2022-11-30T06:02:05.153Z,2.60
2022-11-30T06:04:34.426Z,2.50
2022-11-30T06:07:02.484Z,2.70
2022-11-30T06:09:30.573Z,2.90
2022-11-30T06:12:00.876Z,2.70
2022-11-30T06:14:28.936Z,2.50
2022-11-30T06:16:57.123Z,2.60
2022-11-30T06:19:25.191Z,2.70
2022-11-30T06:21:53.171Z,2.60
2022-11-30T06:24:21.238Z,2.50
2022-11-30T06:26:49.444Z,2.40
2022-11-30T06:29:18.861Z,2.60
2022-11-30T06:31:46.875Z,2.60
2022-11-30T06:34:14.969Z,2.60
2022-11-30T06:36:42.915Z,2.80
2022-11-30T06:39:12.380Z,2.80
2022-11-30T06:41:41.677Z,2.80
2022-11-30T06:44:09.932Z,2.90
2022-11-30T06:46:39.221Z,3.00
2022-11-30T06:49:07.668Z,3.00
2022-11-30T06:51:37.486Z,3.10
2022-11-30T06:54:05.857Z,3.20
2022-11-30T06:56:33.836Z,2.90
2022-11-30T06:59:01.992Z,3.00
2022-11-30T07:01:30.718Z,2.80
2022-11-30T07:04:00.232Z,2.90
2022-11-30T07:06:28.478Z,3.10
2022-11-30T07:08:56.484Z,3.20
2022-11-30T07:11:25.165Z,3.30
2022-11-30T07:13:53.214Z,3.30
2022-11-30T07:16:21.248Z,3.40
2022-11-30T07:18:49.243Z,3.40
2022-11-30T07:21:18.536Z,3.40
2022-11-30T07:24:04.430Z,3.40
2022-11-30T07:26:32.622Z,3.50
2022-11-30T07:29:00.754Z,3.30
2022-11-30T07:31:30.739Z,3.30
2022-11-30T07:34:00.195Z,3.40
2022-11-30T07:36:30.339Z,3.50
2022-11-30T07:38:58.368Z,3.50
2022-11-30T07:41:26.538Z,3.50
2022-11-30T07:43:54.648Z,3.50
2022-11-30T07:46:22.660Z,3.50
2022-11-30T07:48:50.778Z,3.60
2022-11-30T07:51:20.477Z,3.60
2022-11-30T07:53:50.386Z,3.60
2022-11-30T07:56:34.376Z,3.60
2022-11-30T07:59:04.184Z,3.70
2022-11-30T08:01:33.629Z,3.60
2022-11-30T08:04:02.547Z,3.60
2022-11-30T08:06:32.729Z,3.70
2022-11-30T08:09:04.112Z,3.70
2022-11-30T08:11:34.011Z,3.70
2022-11-30T08:14:02.306Z,3.70
2022-11-30T08:16:32.169Z,3.70
2022-11-30T08:19:00.579Z,3.70
2022-11-30T08:21:28.526Z,3.70
2022-11-30T08:23:58.513Z,3.70
2022-11-30T08:26:30.552Z,3.70
2022-11-30T08:28:59.967Z,3.80
2022-11-30T08:31:29.876Z,3.70
2022-11-30T08:33:58.738Z,3.80
2022-11-30T08:36:28.038Z,3.80
2022-11-30T08:38:58.317Z,3.80
2022-11-30T08:41:28.239Z,3.80
2022-11-30T08:43:56.375Z,3.80
2022-11-30T08:46:50.355Z,3.80
2022-11-30T08:49:21.556Z,3.80
2022-11-30T08:52:16.412Z,3.80
2022-11-30T08:54:42.451Z,3.80
2022-11-30T08:57:11.937Z,3.90
2022-11-30T08:59:39.961Z,3.90
2022-11-30T09:02:08.112Z,3.90
2022-11-30T09:04:36.320Z,3.90
2022-11-30T09:07:04.427Z,3.90
2022-11-30T09:09:32.712Z,4.00
2022-11-30T09:12:00.719Z,4.00
2022-11-30T09:14:30.495Z,4.10
2022-11-30T09:16:58.635Z,4.10
2022-11-30T09:19:27.229Z,4.20
2022-11-30T09:21:55.234Z,4.10
2022-11-30T09:24:23.554Z,4.20
2022-11-30T09:26:51.585Z,4.20
2022-11-30T09:29:19.569Z,4.30
2022-11-30T09:31:49.324Z,4.30
2022-11-30T09:34:17.457Z,4.30
2022-11-30T09:36:45.535Z,4.30
2022-11-30T09:39:13.747Z,4.30
2022-11-30T09:42:18.443Z,4.40
2022-11-30T09:44:53.562Z,4.30
2022-11-30T09:47:47.334Z,4.30
2022-11-30T09:50:19.686Z,4.40
2022-11-30T09:52:50.450Z,4.50
2022-11-30T09:55:26.349Z,4.50
2022-11-30T09:57:57.238Z,4.50
2022-11-30T10:00:26.134Z,4.50
2022-11-30T10:02:57.360Z,4.50
2022-11-30T10:05:29.914Z,4.60
2022-11-30T10:08:18.994Z,4.60
2022-11-30T10:10:59.282Z,4.70
2022-11-30T10:13:44.055Z,4.70
2022-11-30T10:16:22.943Z,4.80
2022-11-30T10:19:01.861Z,4.80
2022-11-30T10:21:46.184Z,4.90
2022-11-30T10:24:30.816Z,5.00
2022-11-30T10:27:01.390Z,5.00
2022-11-30T10:29:35.218Z,5.10
2022-11-30T10:32:15.176Z,5.20
2022-11-30T10:34:46.457Z,5.20
2022-11-30T10:37:20.812Z,5.20
2022-11-30T10:39:58.663Z,5.30
2022-11-30T10:42:32.295Z,5.30
2022-11-30T10:45:05.013Z,5.40
2022-11-30T10:47:37.219Z,5.40
2022-11-30T10:50:08.531Z,5.40
2022-11-30T10:52:43.736Z,5.50
2022-11-30T10:55:16.098Z,5.60
2022-11-30T10:57:45.089Z,5.60
2022-11-30T11:00:16.343Z,5.70
2022-11-30T11:02:46.486Z,5.70
2022-11-30T11:05:20.740Z,5.80
2022-11-30T11:08:05.961Z,5.90
2022-11-30T11:10:37.047Z,5.90
2022-11-30T11:13:06.414Z,6.00
2022-11-30T11:15:35.290Z,6.00
2022-11-30T11:18:27.377Z,6.10
2022-11-30T11:21:06.823Z,6.10
2022-11-30T11:23:38.469Z,6.20
2022-11-30T11:26:07.819Z,6.30
2022-11-30T11:28:37.264Z,6.30
2022-11-30T11:31:19.146Z,6.40
2022-11-30T11:33:55.326Z,6.40
2022-11-30T11:36:29.607Z,6.50
2022-11-30T11:38:58.100Z,6.50
2022-11-30T11:41:29.108Z,6.60
2022-11-30T11:44:02.352Z,6.60
2022-11-30T11:46:31.422Z,6.70
2022-11-30T11:49:02.425Z,6.70
2022-11-30T11:51:33.496Z,6.70
2022-11-30T11:54:07.879Z,6.80
2022-11-30T11:56:37.967Z,6.80
2022-11-30T11:59:14.900Z,6.80
2022-11-30T12:01:56.062Z,6.80
2022-11-30T12:04:45.481Z,6.80
2022-11-30T12:07:23.881Z,6.80
2022-11-30T12:10:12.643Z,6.80
2022-11-30T12:12:54.706Z,6.90
2022-11-30T12:15:29.287Z,6.90
2022-11-30T12:18:07.724Z,6.90
2022-11-30T12:20:49.731Z,7.00
2022-11-30T12:23:42.668Z,7.00
2022-11-30T12:26:17.517Z,7.00
2022-11-30T12:28:57.729Z,7.00
2022-11-30T12:31:36.227Z,7.00
2022-11-30T12:34:10.840Z,7.10
2022-11-30T12:36:48.073Z,7.20
2022-11-30T12:39:28.083Z,7.30
2022-11-30T12:42:00.811Z,7.30
2022-11-30T12:44:44.839Z,7.30
2022-11-30T12:47:25.779Z,7.30
2022-11-30T12:50:08.892Z,7.30
2022-11-30T12:52:49.009Z,7.30
2022-11-30T12:55:27.435Z,7.20
2022-11-30T12:58:02.059Z,7.10
2022-11-30T13:00:43.093Z,7.00
2022-11-30T13:03:30.322Z,7.00
2022-11-30T13:06:01.324Z,7.00
2022-11-30T13:08:35.986Z,6.80
2022-11-30T13:11:12.107Z,6.80
2022-11-30T13:13:44.906Z,6.80
2022-11-30T13:16:13.012Z,6.70
2022-11-30T13:18:42.426Z,6.70
2022-11-30T13:21:20.084Z,6.70
2022-11-30T13:23:57.178Z,6.70
2022-11-30T13:26:34.397Z,6.70
2022-11-30T13:29:19.095Z,6.60
2022-11-30T13:31:53.269Z,6.60
2022-11-30T13:34:26.574Z,6.60
2022-11-30T13:37:04.205Z,6.60
2022-11-30T13:39:47.402Z,6.50
2022-11-30T13:42:35.910Z,6.50
2022-11-30T13:45:33.497Z,6.50
2022-11-30T13:48:18.728Z,6.60
2022-11-30T13:50:49.634Z,6.60
2022-11-30T13:53:23.899Z,6.60
2022-11-30T13:56:02.412Z,6.50
2022-11-30T13:58:32.751Z,6.50
2022-11-30T14:01:23.273Z,6.50
2022-11-30T14:04:32.067Z,6.50
2022-11-30T14:07:00.783Z,6.50
2022-11-30T14:10:08.547Z,6.50
2022-11-30T14:12:48.566Z,6.50
2022-11-30T14:15:53.341Z,6.50
2022-11-30T14:18:31.599Z,6.50
2022-11-30T14:21:01.989Z,6.50
2022-11-30T14:23:33.389Z,6.50
2022-11-30T14:26:10.284Z,6.40
2022-11-30T14:28:43.638Z,6.40
2022-11-30T14:31:19.342Z,6.50
2022-11-30T14:33:54.710Z,6.50
2022-11-30T14:36:26.657Z,6.50
2022-11-30T14:38:54.797Z,6.40
2022-11-30T14:41:26.016Z,6.50
2022-11-30T14:44:05.243Z,6.40
2022-11-30T14:46:36.180Z,6.40
2022-11-30T14:49:16.842Z,6.40
2022-11-30T14:51:48.403Z,6.40
2022-11-30T14:54:40.548Z,6.40
2022-11-30T14:57:18.676Z,6.40
2022-11-30T14:59:49.892Z,6.40
2022-11-30T15:02:30.338Z,6.40
2022-11-30T15:05:00.070Z,6.40
2022-11-30T15:07:30.229Z,6.30
2022-11-30T15:10:04.748Z,6.30
2022-11-30T15:12:33.516Z,6.30
2022-11-30T15:15:15.645Z,6.20
2022-11-30T15:18:11.440Z,6.20
2022-11-30T15:20:43.071Z,6.20
2022-11-30T15:23:14.535Z,6.20
2022-11-30T15:25:46.899Z,6.30
2022-11-30T15:28:19.610Z,6.20
2022-11-30T15:30:48.927Z,6.20
2022-11-30T15:33:23.147Z,6.20
2022-11-30T15:36:18.825Z,6.20
2022-11-30T15:38:43.403Z,6.20
2022-11-30T15:41:19.638Z,6.20
2022-11-30T15:43:52.910Z,6.10
2022-11-30T15:46:31.542Z,6.20
2022-11-30T15:49:14.698Z,6.10
2022-11-30T15:51:44.807Z,6.10
2022-11-30T15:54:12.963Z,6.10
2022-11-30T15:56:40.961Z,6.10
2022-11-30T15:59:22.726Z,6.00
2022-11-30T16:02:04.960Z,6.00
2022-11-30T16:05:09.577Z,6.00
2022-11-30T16:07:50.498Z,6.00
2022-11-30T16:10:22.936Z,6.00
2022-11-30T16:12:52.648Z,6.00
2022-11-30T16:15:23.430Z,6.00
2022-11-30T16:17:52.084Z,5.90
2022-11-30T16:20:20.946Z,5.90
2022-11-30T16:22:50.481Z,5.90
2022-11-30T16:25:21.152Z,5.90
2022-11-30T16:27:49.645Z,5.80
2022-11-30T16:30:19.460Z,5.90
2022-11-30T16:32:47.756Z,5.80
2022-11-30T16:35:21.491Z,5.80
2022-11-30T16:37:51.341Z,5.80
2022-11-30T16:40:20.650Z,5.80
2022-11-30T16:42:51.587Z,5.80
2022-11-30T16:45:21.481Z,5.80
2022-11-30T16:47:49.691Z,5.80
2022-11-30T16:50:18.848Z,5.70
2022-11-30T16:52:47.243Z,5.70
2022-11-30T16:55:18.524Z,5.70
2022-11-30T16:57:47.093Z,5.70
2022-11-30T17:00:17.407Z,5.70
2022-11-30T17:02:49.613Z,5.70
2022-11-30T17:05:17.935Z,5.70
2022-11-30T17:07:45.993Z,5.70
2022-11-30T17:10:14.195Z,5.60
2022-11-30T17:12:43.686Z,5.60
2022-11-30T17:15:17.786Z,5.60
2022-11-30T17:17:45.836Z,5.60
2022-11-30T17:20:15.215Z,5.60
2022-11-30T17:22:44.689Z,5.60
2022-11-30T17:25:16.757Z,5.60
2022-11-30T17:27:46.803Z,5.50
2022-11-30T17:30:17.585Z,5.50
2022-11-30T17:32:46.064Z,5.50
2022-11-30T17:35:14.116Z,5.50
2022-11-30T17:37:42.169Z,5.50
2022-11-30T17:40:14.364Z,5.40
2022-11-30T17:42:42.657Z,5.20
2022-11-30T17:45:12.348Z,5.30
2022-11-30T17:47:40.378Z,5.40
2022-11-30T17:50:09.996Z,5.40
2022-11-30T17:52:38.121Z,5.40
2022-11-30T17:55:06.674Z,5.40
2022-11-30T17:57:34.651Z,5.50
2022-11-30T18:00:02.779Z,5.50
2022-11-30T18:02:32.094Z,5.50
2022-11-30T18:05:00.112Z,5.40
2022-11-30T18:07:28.159Z,5.40
2022-11-30T18:09:56.394Z,5.40
2022-11-30T18:12:24.403Z,5.30
2022-11-30T18:14:52.473Z,5.30
2022-11-30T18:17:20.484Z,5.30
2022-11-30T18:19:49.816Z,5.30
2022-11-30T18:22:17.802Z,5.30
2022-11-30T18:24:46.078Z,5.30
2022-11-30T18:27:17.201Z,5.30
2022-11-30T18:29:45.162Z,5.30
2022-11-30T18:32:13.188Z,5.40
2022-11-30T18:34:41.336Z,5.40
2022-11-30T18:37:10.711Z,5.30
2022-11-30T18:39:38.636Z,5.30
2022-11-30T18:42:06.823Z,5.40
2022-11-30T18:44:34.909Z,5.40
2022-11-30T18:47:02.916Z,5.40
2022-11-30T18:49:30.894Z,5.40
2022-11-30T18:51:58.934Z,5.40
2022-11-30T18:54:29.532Z,5.40
2022-11-30T18:56:57.560Z,5.30
2022-11-30T18:59:25.892Z,5.30
2022-11-30T19:01:55.457Z,5.20
2022-11-30T19:04:25.465Z,5.20
2022-11-30T19:06:53.851Z,5.20
2022-11-30T19:09:23.179Z,5.20
2022-11-30T19:11:52.587Z,5.20
2022-11-30T19:14:20.566Z,5.10
2022-11-30T19:16:48.751Z,5.10
2022-11-30T19:19:17.122Z,5.10
2022-11-30T19:21:47.865Z,5.10
2022-11-30T19:24:16.591Z,5.00
2022-11-30T19:26:44.650Z,5.00
2022-11-30T19:29:13.964Z,4.90
2022-11-30T19:31:42.110Z,4.90
2022-11-30T19:34:12.986Z,4.80
2022-11-30T19:36:41.789Z,4.90
2022-11-30T19:39:11.715Z,4.90
2022-11-30T19:41:39.801Z,4.90
2022-11-30T19:44:07.744Z,4.90
2022-11-30T19:46:37.153Z,4.80
2022-11-30T19:49:05.181Z,4.80
2022-11-30T19:51:33.239Z,4.70
2022-11-30T19:54:01.866Z,4.70
2022-11-30T19:56:31.708Z,4.70
2022-11-30T19:59:05.001Z,4.70
2022-11-30T20:01:34.785Z,4.70
2022-11-30T20:04:04.963Z,4.70
2022-11-30T20:06:35.840Z,4.70
2022-11-30T20:09:05.199Z,4.70
2022-11-30T20:11:33.838Z,4.70
2022-11-30T20:14:01.953Z,4.70
2022-11-30T20:16:30.290Z,4.70
2022-11-30T20:19:00.797Z,4.70
2022-11-30T20:21:31.801Z,4.70
2022-11-30T20:24:01.622Z,4.70
2022-11-30T20:26:31.697Z,4.70
2022-11-30T20:29:01.590Z,4.70
2022-11-30T20:31:31.381Z,4.60
2022-11-30T20:34:00.291Z,4.50
2022-11-30T20:36:28.305Z,4.50
2022-11-30T20:38:58.812Z,4.50
2022-11-30T20:41:27.195Z,4.40
2022-11-30T20:43:55.647Z,4.30
2022-11-30T20:46:25.335Z,4.40
2022-11-30T20:48:54.143Z,4.40
2022-11-30T20:51:32.177Z,4.40
2022-11-30T20:54:04.357Z,4.40
2022-11-30T20:56:33.229Z,4.40
2022-11-30T20:59:02.732Z,4.50
2022-11-30T21:01:31.543Z,4.50
2022-11-30T21:04:00.942Z,4.50
2022-11-30T21:06:29.935Z,4.50
2022-11-30T21:08:58.060Z,4.50
2022-11-30T21:11:28.440Z,4.40
2022-11-30T21:13:57.352Z,4.40
2022-11-30T21:16:28.834Z,4.30
2022-11-30T21:18:59.537Z,4.30
2022-11-30T21:21:30.647Z,4.30
2022-11-30T21:24:00.560Z,4.30
2022-11-30T21:26:32.208Z,4.20
2022-11-30T21:29:02.129Z,4.20
2022-11-30T21:31:30.772Z,3.80
2022-11-30T21:33:58.925Z,3.90
2022-11-30T21:36:28.445Z,4.00
2022-11-30T21:39:04.630Z,4.10
2022-11-30T21:41:36.052Z,4.10
2022-11-30T21:44:04.590Z,4.10
2022-11-30T21:46:33.187Z,4.10
2022-11-30T21:49:02.235Z,4.10
2022-11-30T21:51:31.797Z,4.10
2022-11-30T21:54:02.553Z,4.10
2022-11-30T21:56:32.464Z,4.00
2022-11-30T21:59:04.570Z,4.10
2022-11-30T22:01:34.839Z,4.10
2022-11-30T22:04:04.903Z,4.10
2022-11-30T22:06:34.712Z,4.10
2022-11-30T22:09:07.637Z,4.10
2022-11-30T22:11:36.820Z,4.10
2022-11-30T22:14:07.061Z,3.90
2022-11-30T22:16:36.483Z,3.90
2022-11-30T22:19:06.214Z,4.00
2022-11-30T22:21:34.836Z,4.10
2022-11-30T22:24:04.436Z,4.20
2022-11-30T22:26:33.658Z,4.20
2022-11-30T22:29:03.539Z,4.20
2022-11-30T22:31:34.953Z,4.20
2022-11-30T22:34:03.187Z,4.20
2022-11-30T22:36:32.962Z,4.20
2022-11-30T22:39:02.844Z,4.20
2022-11-30T22:41:31.388Z,4.10
2022-11-30T22:44:02.387Z,4.10
2022-11-30T22:46:33.827Z,4.10
2022-11-30T22:49:03.303Z,4.20
2022-11-30T22:51:32.979Z,4.20
2022-11-30T22:54:01.564Z,4.20
2022-11-30T22:56:31.352Z,4.20
2022-11-30T22:59:01.134Z,4.30
2022-11-30T23:01:31.369Z,4.30
2022-11-30T23:04:05.078Z,4.30
2022-11-30T23:06:33.995Z,4.20
2022-11-30T23:09:02.665Z,4.20
2022-11-30T23:11:31.157Z,4.30
2022-11-30T23:13:59.228Z,4.30
2022-11-30T23:16:27.353Z,4.30
2022-11-30T23:18:57.253Z,4.30
2022-11-30T23:21:30.156Z,4.30
2022-11-30T23:23:59.939Z,4.30
2022-11-30T23:26:30.105Z,4.30
2022-11-30T23:29:00.936Z,4.30
2022-11-30T23:31:33.474Z,4.30
2022-11-30T23:34:05.314Z,4.30
2022-11-30T23:36:35.015Z,4.30
2022-11-30T23:39:07.157Z,4.20
2022-11-30T23:41:35.409Z,4.30
2022-11-30T23:44:03.520Z,4.30
2022-11-30T23:46:31.845Z,4.30
2022-11-30T23:49:00.002Z,4.30
2022-11-30T23:51:28.302Z,4.30
2022-11-30T23:53:57.747Z,4.40
2022-11-30T23:56:25.741Z,4.40
2022-11-30T23:58:54.031Z,4.40
